Terminal Aerodrome Forecast
Issued by NWS

Home | Current Version | Previous Version | Graphics & Text | Print | Product List | Glossary On
Versions: 1 2 3 4 5 6 7 8 9 10 11 12 13 14 15 16 17
000
FTUS43 KUNR 221120
TAFGCC
TAF
KGCC 221120Z 2212/2312 10007KT P6SM BKN150
     FM222200 10010KT P6SM TSRA BKN050CB BKN100
     FM230300 35008KT P6SM BKN050=

USA.gov is the U.S. government's official web portal to all federal, state and local government web resources and services.